• Join FlightAware (Why Join?)
  • Login
  • US Flag 
08:43PM EDT


 

Airport Tracker/Info


-or-


 

Live Flight TrackerFlight Track Log ✈ ASQ5311 ✈ 20-Apr-2014 ✈ KLGA - KBGR

Flight Track Log - Related Links

Times and Time Zones

All times are in EDT time to prevent confusion due to time zone crossing. See the ASQ5311 flight status page for this flight to view local times or setup timezone preferences in your user account.

Time Position Orientation Groundspeed Altitude Reporting Facility
EDT Latitude Longitude Course Direction KTS MPH feet Rate Location/Type
10:04PM 40.7575 -73.8433 140° Southeast 105 121 1,900  Level Boston Center
10:05PM 40.7222 -73.8042 140° Southeast 203 234 4,500 2,700 Climbing Boston Center
10:06PM 40.7711 -73.7536 38° Northeast 227 261 7,400 2,820 Climbing Boston Center
10:08PM 40.8361 -73.7042 30° Northeast 268 308 10,300 2,220 Climbing Boston Center
10:09PM 40.9156 -73.6561 25° Northeast 316 364 12,000 2,340 Climbing Boston Center
10:10PM 41.0183 -73.5939 25° Northeast 345 397 15,100 2,640 Climbing Boston Center
10:11PM 41.1106 -73.5383 24° Northeast 359 413 17,400 1,980 Climbing Boston Center
10:12PM 41.2056 -73.4817 24° Northeast 376 433 19,200 1,680 Climbing Boston Center
10:13PM 41.2972 -73.4508 14° North 391 450 20,800 1,740 Climbing Boston Center
10:14PM 41.4058 -73.4433 North 389 448 22,800 1,740 Climbing Boston Center
10:15PM 41.5169 -73.4347 North 395 455 24,400 1,620 Climbing Boston Center
10:16PM 41.6436 -73.4275 North 407 468 26,100 1,380 Climbing Boston Center
10:17PM 41.7619 -73.4194 North 420 483 27,200 1,200 Climbing Boston Center
10:18PM 41.8669 -73.3331 31° Northeast 447 514 28,600 1,140 Climbing Boston Center
10:19PM 41.9553 -73.2056 47° Northeast 463 533 29,600 1,080 Climbing Boston Center
10:20PM 42.0442 -73.0792 47° Northeast 465 535 30,800 660 Climbing Boston Center
10:21PM 42.1344 -72.9489 47° Northeast 474 545 31,000 60 Climbing Boston Center
10:22PM 42.2289 -72.8128 47° Northeast 496 571 31,000  Level Boston Center
10:23PM 42.3414 -72.6497 47° Northeast 500 575 31,000  Level Boston Center
10:24PM 42.4322 -72.5178 47° Northeast 500 575 31,000  Level Boston Center
10:25PM 42.5272 -72.3783 47° Northeast 501 577 31,000  Level Boston Center
10:26PM 42.6239 -72.2383 47° Northeast 502 578 31,000  Level Boston Center
10:27PM 42.7203 -72.0983 47° Northeast 505 581 31,000  Level Boston Center
10:28PM 42.8144 -71.9581 48° Northeast 505 581 31,000  Level Boston Center
10:29PM 42.9083 -71.8186 47° Northeast 505 581 31,000  Level Boston Center
10:30PM 43.0011 -71.6775 48° Northeast 505 581 31,000  Level Boston Center
10:31PM 43.1036 -71.5222 48° Northeast 504 580 31,000  Level Boston Center
10:32PM 43.1878 -71.3961 48° Northeast 500 575 31,000  Level Boston Center
10:33PM 43.2806 -71.2539 48° Northeast 501 577 31,000  Level Boston Center
10:34PM 43.3833 -71.0964 48° Northeast 501 577 31,000  Level Boston Center
10:35PM 43.4658 -70.9692 48° Northeast 501 577 31,000  Level Boston Center
10:36PM 43.5586 -70.8272 48° Northeast 501 577 31,000  Level Boston Center
10:37PM 43.6650 -70.6619 48° Northeast 498 573 31,000 -60 Level Boston Center
10:38PM 43.7589 -70.5147 49° Northeast 508 585 30,900 -1,440 Descending Boston Center
10:39PM 43.8497 -70.3689 49° Northeast 503 579 28,200 -2,580 Descending Boston Center
10:40PM 43.9383 -70.2322 48° Northeast 478 550 25,700 -2,580 Descending Boston Center
10:41PM 44.0281 -70.0928 48° Northeast 480 552 23,100 -2,580 Descending Boston Center
10:42PM 44.1142 -69.9539 49° Northeast 476 548 20,600 -2,460 Descending Boston Center
10:43PM 44.1983 -69.8208 49° Northeast 459 528 18,100 -2,400 Descending Boston Center
10:44PM 44.2817 -69.6875 49° Northeast 429 494 15,800 -2,160 Descending Boston Center
10:45PM 44.3497 -69.5778 49° Northeast 409 471 13,800 -2,040 Descending Boston Center
10:46PM 44.4297 -69.4756 42° Northeast 391 450 11,700 -1,860 Descending Boston Center
10:47PM 44.5031 -69.3922 39° Northeast 351 404 10,100 -1,380 Descending Boston Center
10:48PM 44.5622 -69.3236 40° Northeast 283 326 8,900 -1,560 Descending Boston Center
10:49PM 44.6239 -69.2522 39° Northeast 284 327 7,000 -1,860 Descending Boston Center
10:50PM 44.6817 -69.1831 40° Northeast 280 322 5,200 -1,680 Descending Boston Center
10:51PM 44.7394 -69.1175 39° Northeast 274 315 3,700 -1,260 Descending Boston Center
10:52PM 44.7919 -69.0597 38° Northeast 247 284 2,700 -840 Descending Boston Center
10:53PM 44.8414 -69.0064 37° Northeast 229 264 2,100 -480 Descending Boston Center
10:54PM 44.8658 -68.9389 63° Northeast 198 228 1,800 -480 Descending Boston Center
10:55PM 44.8497 -68.8900 115° Southeast 156 180 1,200 -660 Descending Boston Center
10:56PM 44.8244 -68.8539 135° Southeast 139 160 500 -480 Descending Boston Center
10:57PM 44.8000 -68.8206 136° Southeast 137 158 300 -240 Descending Boston Center